Time;durP1;ratioP1;P1;durP2;ratioP2;P2;SDS_P1;SDS_P2;PMS_P1;PMS_P2;Temp;Humidity;BMP_temperature;BMP_pressure;BME280_temperature;BME280_humidity;BME280_pressure;Samples;Min_cycle;Max_cycle;Signal;HPM_P1;HPM_P2
2022/10/21 00:00:13;;;;;;;7.87;4.90;;;;;;;4.34;69.83;101458.94;1781205;80;21123;-47
2022/10/21 00:02:42;;;;;;;4.65;2.12;;;;;;;4.26;70.03;101460.08;1786227;78;21689;-46
2022/10/21 00:05:10;;;;;;;8.95;4.70;;;;;;;4.22;70.18;101463.72;1779536;80;21044;-46
2022/10/21 00:07:38;;;;;;;9.35;5.05;;;;;;;4.23;70.08;101462.80;1784182;80;22210;-47
2022/10/21 00:10:06;;;;;;;7.85;2.90;;;;;;;4.24;70.09;101461.06;1785488;80;21085;-47
2022/10/21 00:12:33;;;;;;;8.88;4.62;;;;;;;4.21;70.21;101455.95;1786499;80;21888;-47
2022/10/21 00:15:04;;;;;;;7.15;2.37;;;;;;;4.17;70.39;101458.25;1788632;80;21029;-47
2022/10/21 00:17:35;;;;;;;8.68;4.30;;;;;;;4.16;70.67;101458.72;1785270;80;21053;-47
2022/10/21 00:20:07;;;;;;;5.10;1.77;;;;;;;4.14;70.75;101454.48;1765643;80;21096;-46
2022/10/21 00:22:33;;;;;;;8.93;3.90;;;;;;;4.17;70.81;101450.44;1761588;80;21058;-47
2022/10/21 00:25:00;;;;;;;4.85;1.70;;;;;;;4.23;70.71;101455.44;1773247;80;21219;-46
2022/10/21 00:27:26;;;;;;;7.08;4.50;;;;;;;4.26;70.67;101451.42;1779383;80;20975;-46
2022/10/21 00:29:53;;;;;;;7.12;4.15;;;;;;;4.26;70.97;101450.13;1785043;80;21023;-47
2022/10/21 00:32:20;;;;;;;4.72;2.02;;;;;;;4.30;71.03;101441.73;1774957;80;21105;-46
2022/10/21 00:34:47;;;;;;;6.87;4.25;;;;;;;4.27;71.06;101439.64;1776051;80;21042;-47
2022/10/21 00:37:13;;;;;;;7.30;2.65;;;;;;;4.27;71.11;101442.25;1757539;80;21256;-49
2022/10/21 00:39:41;;;;;;;4.05;1.72;;;;;;;4.28;71.02;101447.84;1763053;80;21086;-47
2022/10/21 00:42:18;;;;;;;6.28;3.62;;;;;;;4.32;70.73;101447.73;1774517;80;21081;-47
2022/10/21 00:45:08;;;;;;;4.80;1.90;;;;;;;4.31;70.56;101449.96;1785658;80;21089;-46
2022/10/21 00:47:46;;;;;;;7.60;4.53;;;;;;;4.22;70.64;101461.11;1781835;80;21094;-47
2022/10/21 00:50:27;;;;;;;7.22;2.30;;;;;;;4.07;70.80;101461.67;1778693;80;21498;-47
2022/10/21 00:52:54;;;;;;;9.33;5.00;;;;;;;3.95;70.97;101460.34;1770846;80;21094;-47
2022/10/21 00:55:22;;;;;;;5.42;1.92;;;;;;;3.84;71.15;101472.42;1738030;80;21108;-47
2022/10/21 00:57:49;;;;;;;6.12;2.10;;;;;;;3.84;71.25;101471.12;1783170;80;21124;-46
2022/10/21 01:00:16;;;;;;;9.23;5.20;;;;;;;3.83;71.38;101478.55;1777664;80;21556;-46
2022/10/21 01:02:44;;;;;;;5.95;2.37;;;;;;;3.78;71.56;101471.78;1783524;80;20987;-47
2022/10/21 01:05:11;;;;;;;7.80;2.80;;;;;;;3.74;71.81;101476.70;1785701;80;21560;-47
2022/10/21 01:07:39;;;;;;;7.67;4.53;;;;;;;3.67;72.07;101478.20;1778463;80;21050;-49
2022/10/21 01:10:07;;;;;;;5.80;2.35;;;;;;;3.64;72.21;101469.19;1779664;80;21525;-47
2022/10/21 01:17:10;;;;;;;7.83;3.37;;;;;;;3.73;72.40;101474.53;1796571;79;22681;-47
2022/10/21 01:20:01;;;;;;;4.90;2.00;;;;;;;3.80;71.78;101478.65;1752941;81;21075;-46
2022/10/21 01:23:10;;;;;;;8.25;3.52;;;;;;;3.69;71.87;101474.25;1689854;84;21337;-48
2022/10/21 01:26:17;;;;;;;8.08;2.85;;;;;;;3.58;72.05;101469.42;1705680;83;20992;-47
2022/10/21 01:29:16;;;;;;;7.17;3.00;;;;;;;3.57;72.02;101469.47;1713459;83;21067;-48
2022/10/21 01:32:10;;;;;;;9.13;3.25;;;;;;;3.54;71.99;101463.44;1676870;83;21098;-47
2022/10/21 01:35:17;;;;;;;12.98;3.33;;;;;;;3.48;72.12;101458.89;1714542;83;20994;-47
2022/10/21 01:38:22;;;;;;;5.87;3.02;;;;;;;3.43;72.17;101464.70;1715975;83;21277;-47
2022/10/21 01:41:09;;;;;;;7.65;2.98;;;;;;;3.36;72.19;101474.45;1712969;83;21582;-47
2022/10/21 01:43:50;;;;;;;8.95;2.95;;;;;;;3.38;72.01;101476.58;1718847;83;21122;-47
2022/10/21 01:46:45;;;;;;;8.45;2.85;;;;;;;3.38;71.93;101477.01;1673835;83;21050;-49
2022/10/21 01:49:34;;;;;;;9.73;3.15;;;;;;;3.30;72.00;101478.11;1717039;83;21094;-47
2022/10/21 01:52:00;;;;;;;5.55;2.52;;;;;;;3.22;72.11;101479.27;1709657;83;21276;-47
2022/10/21 01:54:31;;;;;;;9.83;5.78;;;;;;;3.13;72.20;101476.52;1693385;83;21042;-48
2022/10/21 01:56:58;;;;;;;6.15;2.50;;;;;;;3.08;72.37;101488.34;1718014;83;21114;-47
2022/10/21 01:59:26;;;;;;;5.53;2.37;;;;;;;3.11;72.42;101507.77;1720229;83;21067;-47
2022/10/21 02:01:53;;;;;;;6.62;2.00;;;;;;;3.16;72.34;101511.50;1719288;83;21031;-46
2022/10/21 02:04:21;;;;;;;6.45;2.42;;;;;;;3.14;72.32;101508.98;1711250;83;21248;-47
2022/10/21 02:06:47;;;;;;;9.05;5.60;;;;;;;3.10;72.36;101503.91;1711226;83;21054;-47
2022/10/21 02:09:14;;;;;;;7.37;2.70;;;;;;;3.04;72.50;101496.28;1717891;83;21035;-47
2022/10/21 02:11:42;;;;;;;16.30;3.00;;;;;;;3.00;72.49;101494.69;1713072;83;21152;-47
2022/10/21 02:14:16;;;;;;;6.28;2.00;;;;;;;2.99;72.56;101492.52;1717302;83;21114;-48
2022/10/21 02:16:42;;;;;;;8.75;2.98;;;;;;;3.05;72.29;101494.94;1721078;83;22114;-48
2022/10/21 02:19:13;;;;;;;6.90;3.10;;;;;;;3.05;72.00;101513.14;1668999;83;21615;-47
2022/10/21 02:21:41;;;;;;;7.42;5.17;;;;;;;3.01;71.93;101517.17;1709913;83;21045;-47
2022/10/21 02:24:31;;;;;;;7.80;3.98;;;;;;;2.95;72.00;101510.42;1706041;83;21433;-47
2022/10/21 02:26:58;;;;;;;5.03;2.05;;;;;;;2.89;72.05;101505.39;1708977;83;22023;-47
2022/10/21 02:29:28;;;;;;;7.03;3.00;;;;;;;2.86;72.13;101502.88;1714154;83;21737;-47
2022/10/21 02:32:09;;;;;;;6.60;2.58;;;;;;;2.89;71.99;101520.57;1725045;82;21026;-49
2022/10/21 02:35:00;;;;;;;6.62;2.33;;;;;;;2.86;71.80;101522.38;1720752;83;21057;-47
2022/10/21 02:38:01;;;;;;;6.78;2.55;;;;;;;2.81;71.92;101522.54;1719077;81;21061;-48
2022/10/21 02:40:55;;;;;;;4.78;2.05;;;;;;;2.74;72.10;101518.39;1699344;84;21095;-48
2022/10/21 02:43:33;;;;;;;5.83;2.47;;;;;;;2.66;72.28;101514.73;1722932;81;21218;-48
2022/10/21 02:46:06;;;;;;;7.08;2.77;;;;;;;2.67;72.32;101515.58;1722331;83;21046;-48
2022/10/21 02:48:33;;;;;;;8.00;2.40;;;;;;;2.72;72.21;101509.80;1721120;81;21526;-48
2022/10/21 02:51:05;;;;;;;10.78;4.25;;;;;;;2.75;72.12;101508.41;1717494;82;21927;-48
2022/10/21 02:53:32;;;;;;;6.00;2.10;;;;;;;2.72;72.16;101503.30;1716590;81;21011;-48
2022/10/21 02:55:59;;;;;;;5.70;2.58;;;;;;;2.69;72.32;101507.28;1694752;84;21234;-48
2022/10/21 02:58:28;;;;;;;7.75;2.08;;;;;;;2.67;72.40;101515.13;1706569;83;21007;-48
2022/10/21 03:00:54;;;;;;;5.30;1.90;;;;;;;2.64;72.34;101516.96;1713705;83;21066;-49
2022/10/21 03:03:22;;;;;;;12.73;4.42;;;;;;;2.66;72.19;101519.09;1714489;83;21581;-48
2022/10/21 03:05:50;;;;;;;5.30;1.95;;;;;;;2.71;72.03;101519.81;1725205;83;21058;-48
2022/10/21 03:08:16;;;;;;;8.75;5.85;;;;;;;2.71;71.97;101525.84;1723312;81;21841;-48
2022/10/21 03:10:43;;;;;;;12.60;4.85;;;;;;;2.68;72.03;101527.23;1700105;83;21079;-48
2022/10/21 03:13:09;;;;;;;13.05;5.40;;;;;;;2.64;72.11;101535.16;1700845;83;21119;-48
2022/10/21 03:15:37;;;;;;;8.78;3.90;;;;;;;2.56;72.23;101537.98;1700792;83;21078;-48
2022/10/21 03:18:05;;;;;;;7.10;2.90;;;;;;;2.50;72.33;101526.00;1691727;84;22014;-48
2022/10/21 03:20:33;;;;;;;6.58;3.40;;;;;;;2.51;72.31;101527.72;1681923;84;21880;-47
2022/10/21 03:23:00;;;;;;;6.20;2.70;;;;;;;2.55;72.14;101531.91;1684779;84;21016;-48
2022/10/21 03:25:28;;;;;;;10.32;4.15;;;;;;;2.54;72.07;101518.54;1691633;84;21053;-53
2022/10/21 03:27:55;;;;;;;7.95;3.30;;;;;;;2.53;72.16;101523.78;1688941;84;21079;-48
2022/10/21 03:30:22;;;;;;;9.20;6.05;;;;;;;2.48;72.33;101526.95;1688090;84;21091;-50
2022/10/21 03:32:48;;;;;;;8.55;2.90;;;;;;;2.46;72.51;101532.64;1704662;82;21225;-49
2022/10/21 03:35:15;;;;;;;9.15;2.83;;;;;;;2.44;72.58;101532.69;1742425;82;21042;-50
2022/10/21 03:37:42;;;;;;;10.65;7.10;;;;;;;2.49;72.42;101528.64;1705698;82;21046;-48
2022/10/21 03:40:09;;;;;;;10.28;3.70;;;;;;;2.50;72.30;101531.20;1707139;82;21114;-51
2022/10/21 03:42:36;;;;;;;8.20;3.92;;;;;;;2.44;72.34;101526.19;1706148;82;21098;-48
2022/10/21 03:45:04;;;;;;;8.25;3.17;;;;;;;2.39;72.39;101533.27;1685634;83;21255;-48
2022/10/21 03:47:31;;;;;;;11.25;3.92;;;;;;;2.32;72.57;101525.20;1691888;84;21079;-48
2022/10/21 03:49:57;;;;;;;5.78;2.35;;;;;;;2.28;72.65;101531.39;1688392;84;21075;-48
2022/10/21 03:52:24;;;;;;;8.50;3.22;;;;;;;2.30;72.55;101522.66;1726341;81;21060;-48
2022/10/21 03:54:50;;;;;;;7.95;2.92;;;;;;;2.35;72.42;101523.83;1744487;82;21055;-48
2022/10/21 03:57:17;;;;;;;9.40;4.15;;;;;;;2.33;72.37;101518.67;1692162;84;21209;-49
2022/10/21 03:59:44;;;;;;;10.48;4.55;;;;;;;2.31;72.53;101531.31;1705650;83;21105;-48
2022/10/21 04:02:10;;;;;;;17.17;10.93;;;;;;;2.25;72.54;101524.98;1705641;83;21079;-48
2022/10/21 04:04:38;;;;;;;14.85;7.05;;;;;;;2.17;72.65;101528.64;1705331;83;21071;-48
2022/10/21 04:07:04;;;;;;;14.10;7.87;;;;;;;2.14;72.65;101523.53;1706936;83;21114;-49
2022/10/21 04:09:31;;;;;;;14.70;7.42;;;;;;;2.14;72.51;101516.19;1702632;83;21241;-48
2022/10/21 04:11:59;;;;;;;17.07;14.45;;;;;;;2.15;72.57;101531.73;1704562;83;21067;-49
2022/10/21 04:14:26;;;;;;;12.73;6.28;;;;;;;2.11;72.71;101522.77;1704552;84;21051;-48
2022/10/21 04:16:52;;;;;;;13.43;7.12;;;;;;;2.04;72.80;101525.96;1702772;83;21078;-48
2022/10/21 04:19:20;;;;;;;8.58;4.67;;;;;;;1.96;72.86;101526.14;1702441;83;21047;-48
2022/10/21 04:21:48;;;;;;;7.83;3.42;;;;;;;1.91;72.98;101533.66;1708229;83;21099;-49
2022/10/21 04:24:15;;;;;;;11.78;4.17;;;;;;;1.96;72.88;101536.98;1706205;83;21051;-49
2022/10/21 04:26:43;;;;;;;8.15;4.03;;;;;;;1.99;72.87;101535.16;1708902;83;21062;-48
2022/10/21 04:29:10;;;;;;;9.13;3.02;;;;;;;1.98;72.89;101538.64;1706191;83;21602;-48
2022/10/21 04:31:37;;;;;;;13.03;7.40;;;;;;;1.94;73.09;101533.59;1708719;83;21110;-48
2022/10/21 04:34:04;;;;;;;8.63;3.67;;;;;;;1.88;73.24;101543.66;1696682;84;22148;-48
2022/10/21 04:36:31;;;;;;;8.30;3.72;;;;;;;1.87;73.30;101539.38;1703312;83;21031;-48
2022/10/21 04:38:57;;;;;;;8.10;4.17;;;;;;;1.91;73.23;101536.25;1704776;83;21503;-49
2022/10/21 04:41:24;;;;;;;8.18;3.33;;;;;;;1.89;72.99;101537.59;1708918;83;21078;-48
2022/10/21 04:43:51;;;;;;;8.00;3.30;;;;;;;1.84;73.08;101540.30;1706862;83;21035;-48
2022/10/21 04:46:19;;;;;;;7.10;3.52;;;;;;;1.81;73.19;101542.95;1699119;84;21397;-48
2022/10/21 04:48:46;;;;;;;7.95;2.58;;;;;;;1.76;73.30;101542.67;1688389;84;22828;-48
2022/10/21 04:51:13;;;;;;;5.87;2.15;;;;;;;1.74;73.32;101546.61;1710536;82;21007;-48
2022/10/21 04:53:41;;;;;;;5.05;1.95;;;;;;;1.81;73.27;101557.69;1736321;81;21348;-48
2022/10/21 04:56:07;;;;;;;6.78;2.95;;;;;;;1.83;73.25;101560.67;1745218;82;21004;-48
2022/10/21 04:58:34;;;;;;;10.78;5.62;;;;;;;1.80;73.37;101553.38;1747694;82;21236;-49
2022/10/21 05:01:01;;;;;;;8.48;2.52;;;;;;;1.79;73.49;101553.83;1750689;82;21061;-47
2022/10/21 05:03:27;;;;;;;7.58;2.60;;;;;;;1.77;73.55;101550.43;1749753;81;21044;-48
2022/10/21 05:05:54;;;;;;;7.35;3.15;;;;;;;1.78;73.58;101545.66;1750567;82;21016;-49
2022/10/21 05:08:22;;;;;;;6.53;2.42;;;;;;;1.85;73.41;101552.84;1746323;80;21107;-48
2022/10/21 05:10:51;;;;;;;7.45;2.98;;;;;;;1.88;73.36;101557.09;1745728;82;21146;-48
2022/10/21 05:13:19;;;;;;;8.03;2.98;;;;;;;1.87;73.48;101562.73;1658245;82;21117;-47
2022/10/21 05:15:47;;;;;;;8.88;3.10;;;;;;;1.82;73.47;101558.11;1740010;80;21114;-48
2022/10/21 05:18:15;;;;;;;8.33;3.08;;;;;;;1.80;73.58;101562.03;1705081;82;21081;-47
2022/10/21 05:20:44;;;;;;;7.58;3.52;;;;;;;1.83;73.68;101567.58;1717893;82;21529;-47
2022/10/21 05:23:12;;;;;;;11.97;7.10;;;;;;;1.90;73.59;101573.05;1687780;82;21137;-49
2022/10/21 05:25:38;;;;;;;8.50;3.37;;;;;;;1.96;73.57;101568.98;1719427;83;21516;-49
2022/10/21 05:28:05;;;;;;;7.92;3.00;;;;;;;1.98;73.72;101557.27;1715073;83;21556;-47
2022/10/21 05:30:33;;;;;;;9.03;3.45;;;;;;;1.98;73.77;101561.16;1715113;83;21022;-46
2022/10/21 05:32:59;;;;;;;8.33;3.25;;;;;;;1.98;73.67;101575.44;1717972;83;21101;-48
2022/10/21 05:35:26;;;;;;;7.20;3.15;;;;;;;1.99;73.61;101566.31;1719407;83;22871;-47
2022/10/21 05:37:53;;;;;;;10.32;3.65;;;;;;;2.06;73.34;101564.87;1718455;83;21089;-46
2022/10/21 05:40:19;;;;;;;14.68;4.80;;;;;;;2.12;73.29;101563.39;1698587;84;21130;-47
2022/10/21 05:42:46;;;;;;;7.50;3.20;;;;;;;2.16;73.38;101563.73;1694219;84;21038;-47
2022/10/21 05:45:12;;;;;;;9.58;6.05;;;;;;;2.18;73.50;101559.34;1695104;84;22462;-47
2022/10/21 05:47:42;;;;;;;7.97;2.90;;;;;;;2.21;73.56;101560.57;1698429;84;21223;-48
2022/10/21 05:50:10;;;;;;;7.30;1.85;;;;;;;2.28;73.54;101560.80;1693875;84;21146;-48
2022/10/21 05:52:37;;;;;;;9.58;5.55;;;;;;;2.44;73.25;101563.86;1698275;84;21020;-48
2022/10/21 05:55:06;;;;;;;8.38;3.17;;;;;;;2.53;73.06;101558.86;1694020;84;21064;-47
2022/10/21 05:57:34;;;;;;;8.58;2.50;;;;;;;2.59;73.03;101558.23;1688071;84;21066;-47
2022/10/21 06:00:01;;;;;;;6.62;2.52;;;;;;;2.62;72.81;101561.64;1696243;84;21171;-48
2022/10/21 06:02:28;;;;;;;7.85;3.25;;;;;;;2.64;72.71;101566.34;1694118;84;21600;-47
2022/10/21 06:04:54;;;;;;;7.85;2.83;;;;;;;2.61;72.53;101556.89;1698024;84;21076;-47
2022/10/21 06:07:22;;;;;;;14.95;5.60;;;;;;;2.67;72.49;101560.60;1694795;84;21380;-47
2022/10/21 06:09:49;;;;;;;6.08;2.33;;;;;;;2.80;72.34;101566.31;1696210;83;21139;-47
2022/10/21 06:12:15;;;;;;;7.03;2.58;;;;;;;2.92;72.23;101566.41;1696907;83;21253;-47
2022/10/21 06:14:42;;;;;;;7.17;3.12;;;;;;;3.03;72.22;101569.55;1696565;84;21111;-48
2022/10/21 06:17:08;;;;;;;10.08;3.20;;;;;;;3.11;72.10;101569.31;1689400;84;21072;-47
2022/10/21 06:19:34;;;;;;;10.90;6.60;;;;;;;3.16;72.03;101573.49;1737194;81;21035;-47
2022/10/21 06:22:01;;;;;;;10.45;6.60;;;;;;;3.27;71.57;101578.81;1735988;82;21067;-47
2022/10/21 06:24:29;;;;;;;7.40;2.95;;;;;;;3.38;71.06;101577.17;1705058;83;21055;-47
2022/10/21 06:26:56;;;;;;;8.90;3.37;;;;;;;3.52;70.75;101577.61;1738367;82;21012;-47
2022/10/21 06:29:23;;;;;;;11.40;6.03;;;;;;;3.66;70.85;101578.47;1675108;84;21129;-47
2022/10/21 06:31:49;;;;;;;6.35;2.92;;;;;;;3.79;70.78;101579.77;1698005;82;21054;-47
2022/10/21 06:34:16;;;;;;;11.78;6.40;;;;;;;3.94;70.46;101576.28;1708578;83;21074;-47
2022/10/21 06:36:43;;;;;;;12.28;6.47;;;;;;;4.02;70.25;101580.79;1699684;83;21949;-47
2022/10/21 06:39:09;;;;;;;9.90;5.62;;;;;;;4.10;69.82;101576.14;1708737;83;21048;-47
2022/10/21 06:41:36;;;;;;;7.50;3.65;;;;;;;4.26;69.76;101585.14;1706477;83;21071;-48
2022/10/21 06:44:03;;;;;;;10.98;7.25;;;;;;;4.44;69.43;101584.12;1708426;83;21070;-47
2022/10/21 06:46:30;;;;;;;6.70;3.25;;;;;;;4.53;69.25;101583.78;1709666;83;21034;-47
2022/10/21 06:48:58;;;;;;;7.22;3.25;;;;;;;4.63;69.23;101583.84;1705007;83;21048;-47
2022/10/21 06:51:24;;;;;;;6.75;3.27;;;;;;;4.71;69.24;101585.32;1706391;83;21036;-47
2022/10/21 06:53:55;;;;;;;11.57;6.53;;;;;;;4.79;68.77;101577.64;1706257;83;21601;-47
2022/10/21 06:56:22;;;;;;;10.05;5.15;;;;;;;4.93;68.33;101591.47;1675274;84;22499;-47
2022/10/21 06:58:49;;;;;;;10.88;6.58;;;;;;;5.14;68.31;101578.52;1705219;83;21407;-49
2022/10/21 07:01:23;;;;;;;7.25;2.37;;;;;;;5.29;68.09;101579.69;1704722;83;21258;-47
2022/10/21 07:03:49;;;;;;;8.65;5.33;;;;;;;5.40;67.70;101579.67;1703712;83;21097;-47
2022/10/21 07:06:16;;;;;;;9.68;5.33;;;;;;;5.54;67.45;101583.50;1709053;83;21064;-46
2022/10/21 07:08:44;;;;;;;10.03;5.45;;;;;;;5.67;66.86;101590.39;1702857;83;21006;-47
2022/10/21 07:11:12;;;;;;;9.00;5.47;;;;;;;5.78;66.34;101588.18;1702839;83;21129;-47
2022/10/21 07:13:39;;;;;;;7.67;4.55;;;;;;;5.86;65.55;101590.03;1701468;83;21351;-47
2022/10/21 07:16:14;;;;;;;6.20;1.90;;;;;;;5.97;64.85;101585.72;1706935;83;21014;-46
2022/10/21 07:18:42;;;;;;;10.60;4.10;;;;;;;6.11;64.47;101583.83;1718386;82;21053;-46
2022/10/21 07:21:13;;;;;;;10.23;2.75;;;;;;;6.22;64.34;101591.20;1714910;82;21034;-47
2022/10/21 07:23:45;;;;;;;8.25;4.17;;;;;;;6.25;63.77;101593.22;1717848;82;21085;-47
2022/10/21 07:26:12;;;;;;;8.98;4.72;;;;;;;6.31;63.36;101594.74;1716131;83;21253;-47
2022/10/21 07:28:39;;;;;;;5.10;1.87;;;;;;;6.37;63.28;101591.88;1717820;82;21045;-46
2022/10/21 07:31:05;;;;;;;8.05;4.50;;;;;;;6.42;63.28;101587.30;1712829;82;20995;-46
2022/10/21 07:33:33;;;;;;;7.00;2.72;;;;;;;6.51;63.06;101585.57;1700132;82;21010;-47
2022/10/21 07:36:14;;;;;;;8.23;3.98;;;;;;;6.57;63.01;101583.60;1724003;82;21078;-47
2022/10/21 07:38:45;;;;;;;8.03;4.90;;;;;;;6.65;62.78;101571.88;1726445;82;21139;-46
2022/10/21 07:41:19;;;;;;;9.23;4.97;;;;;;;6.79;61.88;101574.34;1719289;82;21556;-47
2022/10/21 07:43:48;;;;;;;9.35;5.67;;;;;;;6.84;61.87;101571.92;1697653;83;21106;-47
2022/10/21 07:46:15;;;;;;;9.65;4.58;;;;;;;6.90;62.02;101573.87;1719524;83;21073;-46
2022/10/21 07:48:41;;;;;;;6.53;3.58;;;;;;;6.99;62.22;101576.05;1682732;84;21150;-46
2022/10/21 07:57:52;;;;;;;5.53;1.80;;;;;;;7.16;60.09;101580.50;1701532;84;20197;-47
2022/10/21 08:00:19;;;;;;;8.28;3.47;;;;;;;7.20;59.88;101580.30;1696998;84;21585;-47
2022/10/21 08:02:55;;;;;;;13.50;3.52;;;;;;;7.28;60.18;101584.31;1686430;84;21016;-47
2022/10/21 08:05:22;;;;;;;6.75;3.02;;;;;;;7.38;60.24;101579.90;1654006;84;21550;-47
2022/10/21 08:07:49;;;;;;;6.03;2.80;;;;;;;7.60;59.27;101578.41;1700050;84;22224;-47
2022/10/21 08:10:16;;;;;;;5.55;2.87;;;;;;;7.76;58.49;101583.73;1699914;84;21024;-47
2022/10/21 08:12:43;;;;;;;6.05;2.95;;;;;;;7.95;57.24;101589.37;1696926;84;21083;-47
2022/10/21 08:15:10;;;;;;;5.95;2.87;;;;;;;8.07;57.54;101591.40;1720247;82;21067;-47
2022/10/21 08:17:37;;;;;;;7.67;2.98;;;;;;;8.16;56.95;101591.39;1703558;82;21181;-46
2022/10/21 08:20:05;;;;;;;6.83;3.25;;;;;;;8.18;56.32;101586.91;1748414;82;21063;-47
2022/10/21 08:22:32;;;;;;;9.68;3.20;;;;;;;8.25;55.90;101592.22;1713701;82;21101;-47
2022/10/21 08:25:00;;;;;;;6.33;2.65;;;;;;;8.30;56.04;101596.77;1750529;81;21539;-47
2022/10/21 08:27:27;;;;;;;5.87;2.90;;;;;;;8.36;55.10;101589.91;1748834;82;21464;-47
2022/10/21 08:29:54;;;;;;;6.42;2.90;;;;;;;8.43;54.99;101587.02;1714573;82;21092;-47
2022/10/21 08:32:21;;;;;;;6.12;2.95;;;;;;;8.48;54.02;101588.45;1697250;84;21028;-46
2022/10/21 08:34:47;;;;;;;6.12;3.20;;;;;;;8.49;53.59;101581.42;1711410;82;21038;-47
2022/10/21 08:37:14;;;;;;;6.20;3.37;;;;;;;8.45;53.51;101580.74;1738367;81;21118;-48
2022/10/21 08:39:42;;;;;;;5.45;2.95;;;;;;;8.46;53.39;101578.98;1753512;81;21003;-47
2022/10/21 08:42:15;;;;;;;6.90;3.10;;;;;;;8.49;53.71;101574.86;1749778;81;21251;-47
2022/10/21 08:44:47;;;;;;;6.55;3.05;;;;;;;8.55;53.98;101570.14;1749002;81;21554;-47
2022/10/21 08:47:35;;;;;;;6.45;2.77;;;;;;;8.67;53.71;101566.03;1739373;81;21732;-47
2022/10/21 08:50:14;;;;;;;6.47;3.10;;;;;;;8.73;52.96;101570.95;1716661;82;21525;-47
2022/10/21 08:52:50;;;;;;;7.92;2.83;;;;;;;8.79;53.27;101565.00;1710623;82;21078;-49
2022/10/21 08:55:32;;;;;;;5.30;2.67;;;;;;;8.87;52.04;101571.52;1696301;84;21309;-47
2022/10/21 08:57:59;;;;;;;5.80;3.25;;;;;;;8.93;52.12;101566.42;1694497;84;21013;-47
2022/10/21 09:00:52;;;;;;;7.20;2.70;;;;;;;9.00;52.18;101570.88;1700432;83;21103;-47
2022/10/21 09:03:27;;;;;;;6.47;3.35;;;;;;;9.07;51.61;101571.75;1701301;84;21017;-47
2022/10/21 09:06:37;;;;;;;6.33;3.58;;;;;;;9.19;51.14;101571.55;1700320;84;21057;-47
2022/10/21 09:09:18;;;;;;;6.55;3.40;;;;;;;9.28;51.09;101566.28;1690149;84;21268;-46
2022/10/21 09:12:07;;;;;;;6.62;3.20;;;;;;;9.37;50.50;101560.49;1703821;83;21011;-46
2022/10/21 09:15:08;;;;;;;6.80;2.83;;;;;;;9.38;49.65;101558.26;1747279;81;21019;-46
2022/10/21 09:17:53;;;;;;;6.78;3.08;;;;;;;9.41;49.58;101554.12;1751305;81;21033;-46
2022/10/21 09:20:47;;;;;;;5.17;3.25;;;;;;;9.46;48.65;101557.80;1754913;81;21050;-47
2022/10/21 09:23:53;;;;;;;8.38;4.33;;;;;;;9.44;48.96;101556.58;1709083;82;21145;-47
2022/10/21 09:26:37;;;;;;;7.35;3.60;;;;;;;9.45;49.58;101559.59;1694491;83;21062;-46
2022/10/21 09:29:32;;;;;;;7.22;3.62;;;;;;;9.50;49.32;101558.03;1698594;83;21122;-46
2022/10/21 09:32:05;;;;;;;6.97;3.15;;;;;;;9.54;49.12;101558.22;1718860;82;21093;-46
2022/10/21 09:35:02;;;;;;;5.75;2.90;;;;;;;9.57;48.99;101555.90;1709092;82;21134;-46
2022/10/21 09:37:39;;;;;;;5.97;2.83;;;;;;;9.59;48.89;101556.66;1711794;83;21254;-45
2022/10/21 09:40:20;;;;;;;6.33;2.72;;;;;;;9.59;48.65;101557.97;1733812;82;21656;-45
2022/10/21 09:42:49;;;;;;;7.20;3.12;;;;;;;9.60;48.82;101560.95;1679416;84;21083;-45
2022/10/21 09:45:34;;;;;;;4.92;2.40;;;;;;;9.63;49.07;101560.78;1720284;83;21011;-46
2022/10/21 09:48:19;;;;;;;4.62;2.25;;;;;;;9.66;48.07;101560.14;1702445;83;21011;-46
2022/10/21 09:51:07;;;;;;;6.70;2.30;;;;;;;9.74;48.28;101561.02;1719061;82;21784;-47
2022/10/21 09:53:39;;;;;;;6.35;2.77;;;;;;;9.80;46.89;101555.87;1691089;84;21054;-47
2022/10/21 09:56:21;;;;;;;7.35;3.15;;;;;;;9.81;46.58;101552.31;1685171;82;21105;-46
2022/10/21 09:59:07;;;;;;;7.12;3.17;;;;;;;9.79;46.83;101555.51;1679037;82;21077;-46
2022/10/21 10:01:35;;;;;;;6.83;3.17;;;;;;;9.74;47.27;101563.66;1718039;82;21050;-46
2022/10/21 10:04:26;;;;;;;8.48;3.58;;;;;;;9.67;47.14;101557.06;1720018;83;21255;-46
2022/10/21 10:06:53;;;;;;;7.50;3.40;;;;;;;9.62;47.39;101565.68;1692286;83;21102;-46
2022/10/21 10:09:30;;;;;;;7.08;2.80;;;;;;;9.55;47.47;101557.30;1739321;82;21042;-48
2022/10/21 10:12:04;;;;;;;5.37;2.10;;;;;;;9.52;46.96;101557.95;1722922;82;21569;-47
2022/10/21 10:14:38;;;;;;;4.58;1.82;;;;;;;9.52;47.31;101552.69;1705416;83;21498;-46
2022/10/21 10:17:32;;;;;;;2.95;0.95;;;;;;;9.56;46.99;101553.72;1710014;83;21302;-46
2022/10/21 10:20:13;;;;;;;4.03;1.35;;;;;;;9.60;45.93;101548.69;1711717;83;21027;-47
2022/10/21 10:22:46;;;;;;;3.65;1.42;;;;;;;9.65;46.17;101543.17;1704494;83;21558;-47
2022/10/21 10:25:20;;;;;;;5.00;1.30;;;;;;;9.72;46.28;101533.98;1703017;83;21106;-47
2022/10/21 10:27:58;;;;;;;5.10;1.90;;;;;;;9.79;46.08;101525.28;1708095;83;21488;-46
2022/10/21 10:30:28;;;;;;;4.67;2.17;;;;;;;9.86;46.08;101532.70;1711909;83;21160;-46
2022/10/21 10:32:55;;;;;;;5.03;2.12;;;;;;;9.88;45.95;101526.04;1710236;83;21140;-47
2022/10/21 10:35:32;;;;;;;5.40;1.62;;;;;;;9.88;46.09;101523.88;1709557;82;21083;-47
2022/10/21 10:38:00;;;;;;;3.08;1.00;;;;;;;9.90;46.11;101516.75;1704090;83;21092;-47
2022/10/21 10:40:32;;;;;;;4.53;1.32;;;;;;;9.94;45.73;101518.28;1717479;83;21090;-46
2022/10/21 10:43:25;;;;;;;4.37;1.50;;;;;;;9.93;45.75;101513.94;1715778;82;21136;-46
2022/10/21 10:46:06;;;;;;;4.42;1.85;;;;;;;9.95;46.07;101518.19;1690597;84;21155;-46
2022/10/21 10:48:47;;;;;;;4.87;2.25;;;;;;;9.93;46.11;101512.63;1699523;84;21514;-47
2022/10/21 10:51:29;;;;;;;6.95;2.00;;;;;;;9.89;46.34;101508.02;1692662;84;21036;-46
2022/10/21 10:54:16;;;;;;;5.55;2.05;;;;;;;9.90;46.37;101507.55;1686420;84;21025;-47
2022/10/21 10:57:02;;;;;;;4.65;1.80;;;;;;;9.89;46.93;101506.71;1697191;84;21428;-46
2022/10/21 10:59:50;;;;;;;4.75;1.85;;;;;;;9.90;46.20;101516.30;1720879;82;21617;-46
2022/10/21 11:02:43;;;;;;;7.95;1.92;;;;;;;9.85;46.32;101512.63;1763708;80;21128;-47
2022/10/21 11:05:22;;;;;;;5.97;2.42;;;;;;;9.81;46.47;101505.84;1752885;81;21090;-48
2022/10/21 11:07:55;;;;;;;6.37;2.65;;;;;;;9.78;47.06;101502.06;1741493;80;21074;-46
2022/10/21 11:10:48;;;;;;;5.50;2.30;;;;;;;9.75;46.97;101497.02;1736903;81;21065;-47
2022/10/21 11:13:17;;;;;;;5.22;2.02;;;;;;;9.74;47.32;101494.48;1748334;81;21055;-47
2022/10/21 11:15:55;;;;;;;6.03;2.58;;;;;;;9.75;47.73;101480.38;1742051;82;21058;-46
2022/10/21 11:18:48;;;;;;;3.50;1.30;;;;;;;9.80;47.86;101479.19;1739527;81;21072;-46
2022/10/21 11:21:32;;;;;;;3.65;1.27;;;;;;;9.86;47.37;101475.34;1735099;81;21480;-47
2022/10/21 11:24:10;;;;;;;3.47;1.40;;;;;;;9.90;46.31;101478.63;1716630;82;21241;-46
2022/10/21 11:27:01;;;;;;;4.85;2.22;;;;;;;9.90;45.09;101473.38;1696495;82;21027;-47
2022/10/21 11:30:11;;;;;;;4.65;1.80;;;;;;;9.90;45.73;101468.11;1693536;84;21035;-46
2022/10/21 11:32:49;;;;;;;4.47;1.47;;;;;;;9.86;46.10;101472.23;1703385;84;21067;-47
2022/10/21 11:35:38;;;;;;;4.45;1.70;;;;;;;9.81;46.22;101450.63;1742317;81;21059;-50
2022/10/21 11:38:39;;;;;;;6.20;2.20;;;;;;;9.82;46.26;101439.19;1741327;81;21139;-46
2022/10/21 11:41:23;;;;;;;5.95;2.10;;;;;;;9.81;46.31;101409.05;1707848;82;21050;-46
2022/10/21 11:44:22;;;;;;;6.67;2.35;;;;;;;9.78;46.72;101406.13;1744807;82;21062;-46
2022/10/21 11:47:06;;;;;;;5.22;2.00;;;;;;;9.77;46.46;101411.03;1706585;82;21142;-47
2022/10/21 11:49:39;;;;;;;4.65;2.10;;;;;;;9.74;46.41;101403.32;1742462;82;21110;-46
2022/10/21 11:52:14;;;;;;;4.87;2.17;;;;;;;9.75;46.92;101394.51;1704839;82;21131;-46
2022/10/21 11:55:18;;;;;;;4.40;1.92;;;;;;;9.77;47.03;101387.38;1687168;84;21069;-47
2022/10/21 11:58:20;;;;;;;6.53;1.60;;;;;;;9.89;46.81;101388.89;1743372;81;21109;-46
2022/10/21 12:01:22;;;;;;;4.62;1.65;;;;;;;9.95;45.70;101387.17;1735962;81;21062;-47
2022/10/21 12:04:06;;;;;;;4.92;1.50;;;;;;;9.96;46.00;101397.59;1697083;82;21360;-46
2022/10/21 12:07:02;;;;;;;3.92;1.57;;;;;;;9.94;45.90;101396.02;1727257;81;21843;-46
2022/10/21 12:09:55;;;;;;;5.30;1.80;;;;;;;9.92;45.82;101401.81;1743914;80;21540;-46
2022/10/21 12:12:34;;;;;;;4.03;1.30;;;;;;;9.92;45.00;101396.56;1740471;82;21537;-46